Time;durP1;ratioP1;P1;durP2;ratioP2;P2;SDS_P1;SDS_P2;PMS_P1;PMS_P2;Temp;Humidity;BMP_temperature;BMP_pressure;BME280_temperature;BME280_humidity;BME280_pressure;Samples;Min_cycle;Max_cycle;Signal;HPM_P1;HPM_P2
2022/12/21 00:01:34;;;;;;;8.10;7.40;;;;;;;;;;5100156;28;20203;-69
2022/12/21 00:04:03;;;;;;;8.82;7.93;;;;;;;;;;5099700;28;20239;-69
2022/12/21 00:06:32;;;;;;;8.23;7.43;;;;;;;;;;5100404;28;20471;-69
2022/12/21 00:09:01;;;;;;;7.82;7.13;;;;;;;;;;5099945;28;20233;-69
2022/12/21 00:11:29;;;;;;;7.75;6.95;;;;;;;;;;5100152;28;20486;-69
2022/12/21 00:13:58;;;;;;;8.43;7.63;;;;;;;;;;5099965;28;20247;-69
2022/12/21 00:16:29;;;;;;;7.97;7.28;;;;;;;;;;5100352;28;20585;-69
2022/12/21 00:18:57;;;;;;;7.78;7.05;;;;;;;;;;5099709;28;20199;-69
2022/12/21 00:21:26;;;;;;;7.93;7.13;;;;;;;;;;5098802;28;20214;-69
2022/12/21 00:23:58;;;;;;;7.90;7.20;;;;;;;;;;5099699;28;20509;-69
2022/12/21 00:26:26;;;;;;;7.60;6.80;;;;;;;;;;5099617;28;20283;-69
2022/12/21 00:28:54;;;;;;;7.82;7.13;;;;;;;;;;5099422;28;20227;-69
2022/12/21 00:31:24;;;;;;;7.40;6.70;;;;;;;;;;5099730;28;20235;-69
2022/12/21 00:33:53;;;;;;;7.72;7.03;;;;;;;;;;5099234;28;20471;-69
2022/12/21 00:36:21;;;;;;;7.57;6.85;;;;;;;;;;5099455;28;20208;-69
2022/12/21 00:38:49;;;;;;;7.40;6.70;;;;;;;;;;5099410;28;20203;-68
2022/12/21 00:41:18;;;;;;;7.82;6.88;;;;;;;;;;5099317;28;20237;-69
2022/12/21 00:43:46;;;;;;;7.30;6.70;;;;;;;;;;5099603;28;20211;-69
2022/12/21 00:46:16;;;;;;;7.40;6.70;;;;;;;;;;5099480;28;20204;-69
2022/12/21 00:48:43;;;;;;;7.38;6.68;;;;;;;;;;5099260;28;20241;-69
2022/12/21 00:51:13;;;;;;;7.53;6.82;;;;;;;;;;5099030;28;20214;-69
2022/12/21 00:53:41;;;;;;;8.25;7.45;;;;;;;;;;5099322;28;20286;-69
2022/12/21 00:56:10;;;;;;;7.47;6.80;;;;;;;;;;5099108;28;20261;-69
2022/12/21 00:58:38;;;;;;;7.35;6.63;;;;;;;;;;5098820;28;20290;-69
2022/12/21 01:01:07;;;;;;;7.18;6.47;;;;;;;;;;5098959;28;20235;-69
2022/12/21 01:03:34;;;;;;;7.57;6.88;;;;;;;;;;5097817;28;20597;-69
2022/12/21 01:06:02;;;;;;;7.68;6.97;;;;;;;;;;5099211;28;20480;-69
2022/12/21 01:08:31;;;;;;;7.18;6.47;;;;;;;;;;5098877;28;20211;-68
2022/12/21 01:11:00;;;;;;;7.75;7.05;;;;;;;;;;5098330;28;20571;-69
2022/12/21 01:13:28;;;;;;;7.78;6.97;;;;;;;;;;5098909;28;20203;-69
2022/12/21 01:15:56;;;;;;;7.30;6.60;;;;;;;;;;5098860;28;20294;-69
2022/12/21 01:18:24;;;;;;;7.93;7.13;;;;;;;;;;5098666;28;20203;-69
2022/12/21 01:20:52;;;;;;;7.13;6.43;;;;;;;;;;5098457;28;20242;-69
2022/12/21 01:23:20;;;;;;;7.65;6.90;;;;;;;;;;5098462;28;20204;-69
2022/12/21 01:25:50;;;;;;;7.22;6.53;;;;;;;;;;5098717;28;20215;-69
2022/12/21 01:28:18;;;;;;;7.78;6.97;;;;;;;;;;5098587;28;20294;-69
2022/12/21 01:30:46;;;;;;;7.72;6.93;;;;;;;;;;5098627;28;20327;-69
2022/12/21 01:33:15;;;;;;;7.30;6.60;;;;;;;;;;5097101;28;20204;-69
2022/12/21 01:35:43;;;;;;;6.85;6.25;;;;;;;;;;5098392;28;20203;-69
2022/12/21 01:38:11;;;;;;;7.47;6.78;;;;;;;;;;5098335;28;20210;-69
2022/12/21 01:40:39;;;;;;;7.53;6.82;;;;;;;;;;5098045;28;20641;-69
2022/12/21 01:43:18;;;;;;;7.25;6.55;;;;;;;;;;5098475;28;20497;-69
2022/12/21 01:45:46;;;;;;;7.57;6.88;;;;;;;;;;5098336;28;20204;-69
2022/12/21 01:48:15;;;;;;;7.53;6.80;;;;;;;;;;5098083;28;20203;-69
2022/12/21 01:50:45;;;;;;;7.68;6.88;;;;;;;;;;5097840;28;20228;-69
2022/12/21 01:53:15;;;;;;;7.47;6.78;;;;;;;;;;5097897;28;20211;-69
2022/12/21 01:55:44;;;;;;;7.75;7.00;;;;;;;;;;5098157;28;20214;-69
2022/12/21 01:58:13;;;;;;;7.22;6.53;;;;;;;;;;5098196;28;20258;-69
2022/12/21 02:00:42;;;;;;;6.80;6.13;;;;;;;;;;5097882;28;20200;-69
2022/12/21 02:03:12;;;;;;;7.05;6.35;;;;;;;;;;5097568;28;20240;-69
2022/12/21 02:05:44;;;;;;;6.95;6.28;;;;;;;;;;5097749;28;20211;-69
2022/12/21 02:08:12;;;;;;;7.43;6.72;;;;;;;;;;5097834;28;20238;-68
2022/12/21 02:10:40;;;;;;;7.57;6.88;;;;;;;;;;5098003;28;20237;-68
2022/12/21 02:13:09;;;;;;;7.05;6.35;;;;;;;;;;5097846;28;20257;-69
2022/12/21 02:15:42;;;;;;;7.47;6.78;;;;;;;;;;5097869;28;20204;-69
2022/12/21 02:18:14;;;;;;;7.55;6.78;;;;;;;;;;5097525;28;20208;-69
2022/12/21 02:20:47;;;;;;;7.32;6.63;;;;;;;;;;5097776;28;20243;-69
2022/12/21 02:23:30;;;;;;;7.15;6.45;;;;;;;;;;5097922;28;20243;-69
2022/12/21 02:26:12;;;;;;;7.10;6.50;;;;;;;;;;5097751;28;20247;-69
2022/12/21 02:29:00;;;;;;;7.00;6.30;;;;;;;;;;5097875;28;20203;-69
2022/12/21 02:31:35;;;;;;;7.00;6.32;;;;;;;;;;5097745;28;20227;-69
2022/12/21 02:34:09;;;;;;;7.88;7.13;;;;;;;;;;5097438;28;20263;-69
2022/12/21 02:36:41;;;;;;;7.45;6.75;;;;;;;;;;5097505;28;20306;-69
2022/12/21 02:39:14;;;;;;;7.45;6.75;;;;;;;;;;5097295;28;20214;-69
2022/12/21 02:41:50;;;;;;;7.72;7.03;;;;;;;;;;5097791;28;20211;-69
2022/12/21 02:44:24;;;;;;;7.25;6.55;;;;;;;;;;5100176;28;20203;-69
2022/12/21 02:46:58;;;;;;;8.00;7.20;;;;;;;;;;5101927;28;20209;-69
2022/12/21 02:49:29;;;;;;;7.50;6.80;;;;;;;;;;5101412;28;20203;-69
2022/12/21 02:52:02;;;;;;;7.25;6.55;;;;;;;;;;5101759;28;20203;-69
2022/12/21 02:54:30;;;;;;;7.82;7.03;;;;;;;;;;5101245;28;20316;-69
2022/12/21 02:56:58;;;;;;;7.22;6.47;;;;;;;;;;5101449;28;20232;-69
2022/12/21 02:59:28;;;;;;;7.57;6.88;;;;;;;;;;5101566;28;20272;-69
2022/12/21 03:02:16;;;;;;;7.40;6.70;;;;;;;;;;5101257;28;20229;-69
2022/12/21 03:04:56;;;;;;;7.07;6.38;;;;;;;;;;5101035;28;20250;-69
2022/12/21 03:07:42;;;;;;;7.32;6.63;;;;;;;;;;5101023;28;20203;-69
2022/12/21 03:10:15;;;;;;;7.43;6.72;;;;;;;;;;5101013;28;20277;-69
2022/12/21 03:12:52;;;;;;;7.60;6.82;;;;;;;;;;5101149;28;20211;-69
2022/12/21 03:15:21;;;;;;;7.68;6.97;;;;;;;;;;5101283;28;20209;-69
2022/12/21 03:17:55;;;;;;;7.47;6.78;;;;;;;;;;5101255;28;20214;-69
2022/12/21 03:20:25;;;;;;;7.20;6.50;;;;;;;;;;5101457;28;20203;-69
2022/12/21 03:22:57;;;;;;;7.15;6.45;;;;;;;;;;5100960;28;20210;-69
2022/12/21 03:25:27;;;;;;;7.40;6.60;;;;;;;;;;5101004;28;20567;-69
2022/12/21 03:27:56;;;;;;;7.57;6.78;;;;;;;;;;5101093;28;20203;-69
2022/12/21 03:30:26;;;;;;;7.18;6.47;;;;;;;;;;5100560;28;20243;-69
2022/12/21 03:32:58;;;;;;;7.30;6.60;;;;;;;;;;5100481;28;20286;-69
2022/12/21 03:35:29;;;;;;;7.57;6.88;;;;;;;;;;5100696;28;20572;-69
2022/12/21 03:37:57;;;;;;;7.15;6.45;;;;;;;;;;5100786;28;20204;-69
2022/12/21 03:40:26;;;;;;;7.28;6.63;;;;;;;;;;5100514;28;20235;-69
2022/12/21 03:42:58;;;;;;;7.20;6.50;;;;;;;;;;5100521;28;20560;-69
2022/12/21 03:45:29;;;;;;;7.53;6.82;;;;;;;;;;5100353;28;20203;-69
2022/12/21 03:48:00;;;;;;;6.70;6.10;;;;;;;;;;5100301;28;20203;-69
2022/12/21 03:50:30;;;;;;;6.70;6.10;;;;;;;;;;5100271;28;20304;-69
2022/12/21 03:53:01;;;;;;;6.90;6.30;;;;;;;;;;5100618;28;20203;-69
2022/12/21 03:55:31;;;;;;;7.30;6.60;;;;;;;;;;5099079;28;20203;-69
2022/12/21 03:57:59;;;;;;;6.97;6.28;;;;;;;;;;5099896;28;20568;-68
2022/12/21 04:00:28;;;;;;;7.78;7.07;;;;;;;;;;5100509;28;20208;-69
2022/12/21 04:03:01;;;;;;;7.32;6.63;;;;;;;;;;5100058;28;20534;-69
2022/12/21 04:05:30;;;;;;;7.00;6.35;;;;;;;;;;5099599;28;20243;-69
2022/12/21 04:07:58;;;;;;;6.55;5.95;;;;;;;;;;5099470;28;20210;-69
2022/12/21 04:10:27;;;;;;;6.72;6.13;;;;;;;;;;5099456;28;20828;-69
2022/12/21 04:12:53;;;;;;;6.78;6.18;;;;;;;;;;5099634;28;20250;-69
2022/12/21 04:15:23;;;;;;;7.13;6.45;;;;;;;;;;5099716;28;20572;-69
2022/12/21 04:17:52;;;;;;;7.40;6.70;;;;;;;;;;5099758;28;20211;-69
2022/12/21 04:20:21;;;;;;;6.78;6.07;;;;;;;;;;5099335;28;20234;-69
2022/12/21 04:28:22;;;;;;;7.30;6.63;;;;;;;;;;5098994;28;20277;-69
2022/12/21 04:30:50;;;;;;;6.43;5.82;;;;;;;;;;5099239;28;20223;-69
2022/12/21 04:33:18;;;;;;;6.82;6.20;;;;;;;;;;5099054;28;20222;-69
2022/12/21 04:38:34;;;;;;;7.18;6.47;;;;;;;;;;5098662;28;20486;-69
2022/12/21 04:41:02;;;;;;;6.70;6.10;;;;;;;;;;5099141;28;20200;-69
2022/12/21 04:43:30;;;;;;;6.28;5.70;;;;;;;;;;5099070;28;20237;-69
2022/12/21 04:46:01;;;;;;;6.57;5.97;;;;;;;;;;5099026;28;20548;-69
2022/12/21 04:48:29;;;;;;;6.88;6.18;;;;;;;;;;5099172;28;20494;-69
2022/12/21 04:51:03;;;;;;;7.20;6.50;;;;;;;;;;5098760;28;20479;-69
2022/12/21 04:53:31;;;;;;;6.88;6.18;;;;;;;;;;5098599;28;20217;-69
2022/12/21 04:55:59;;;;;;;7.10;6.40;;;;;;;;;;5099034;28;20204;-69
2022/12/21 04:58:26;;;;;;;6.90;6.20;;;;;;;;;;5098631;28;20484;-69
2022/12/21 05:00:54;;;;;;;7.30;6.60;;;;;;;;;;5098689;28;20575;-69
2022/12/21 05:03:22;;;;;;;6.78;6.10;;;;;;;;;;5098317;28;20706;-69
2022/12/21 05:05:49;;;;;;;7.45;6.75;;;;;;;;;;5098147;28;20206;-69
2022/12/21 05:08:18;;;;;;;7.25;6.55;;;;;;;;;;5098689;28;20203;-69
2022/12/21 05:10:47;;;;;;;6.53;5.93;;;;;;;;;;5098400;28;20322;-69
2022/12/21 05:13:14;;;;;;;7.13;6.43;;;;;;;;;;5098408;28;20203;-69
2022/12/21 05:15:41;;;;;;;7.13;6.43;;;;;;;;;;5098283;28;20310;-69
2022/12/21 05:18:09;;;;;;;7.07;6.40;;;;;;;;;;5098027;28;20254;-69
2022/12/21 05:20:37;;;;;;;7.25;6.55;;;;;;;;;;5098254;28;20207;-69
2022/12/21 05:23:04;;;;;;;7.55;6.72;;;;;;;;;;5097994;28;20638;-69
2022/12/21 05:25:33;;;;;;;6.78;6.15;;;;;;;;;;5098384;28;20203;-69
2022/12/21 05:28:00;;;;;;;7.22;6.53;;;;;;;;;;5097848;28;20302;-69
2022/12/21 05:30:28;;;;;;;6.72;6.13;;;;;;;;;;5097920;28;20710;-69
2022/12/21 05:32:55;;;;;;;7.15;6.45;;;;;;;;;;5097927;28;20213;-69
2022/12/21 05:35:23;;;;;;;7.35;6.65;;;;;;;;;;5098159;28;20207;-69
2022/12/21 05:37:50;;;;;;;7.57;6.88;;;;;;;;;;5097887;28;20253;-69
2022/12/21 05:40:18;;;;;;;7.53;6.72;;;;;;;;;;5097245;28;20208;-69
2022/12/21 05:42:46;;;;;;;7.32;6.63;;;;;;;;;;5097294;28;20200;-69
2022/12/21 05:45:14;;;;;;;7.55;6.85;;;;;;;;;;5098059;28;20294;-69
2022/12/21 05:47:42;;;;;;;8.13;7.32;;;;;;;;;;5097551;28;20250;-68
2022/12/21 05:50:10;;;;;;;7.85;7.15;;;;;;;;;;5097026;28;20531;-69
2022/12/21 05:52:38;;;;;;;7.60;6.80;;;;;;;;;;5096433;28;20314;-68
2022/12/21 05:55:06;;;;;;;7.85;6.97;;;;;;;;;;5096732;28;20208;-68
2022/12/21 05:57:33;;;;;;;7.85;7.05;;;;;;;;;;5096293;28;20230;-68
2022/12/21 06:00:02;;;;;;;7.80;7.00;;;;;;;;;;5096273;28;20195;-69
2022/12/21 06:02:29;;;;;;;7.32;6.53;;;;;;;;;;5095936;28;20570;-69
2022/12/21 06:04:57;;;;;;;7.70;6.95;;;;;;;;;;5095960;28;20306;-68
2022/12/21 06:07:24;;;;;;;7.72;6.95;;;;;;;;;;5096067;28;20250;-68
2022/12/21 06:09:52;;;;;;;8.02;7.22;;;;;;;;;;5096445;28;20309;-69
2022/12/21 06:12:19;;;;;;;7.55;6.85;;;;;;;;;;5095919;28;20327;-69
2022/12/21 06:14:47;;;;;;;8.35;7.55;;;;;;;;;;5095703;28;20200;-69
2022/12/21 06:17:16;;;;;;;7.88;7.07;;;;;;;;;;5095869;28;20310;-69
2022/12/21 06:19:43;;;;;;;8.30;7.47;;;;;;;;;;5094982;28;20282;-69
2022/12/21 06:22:10;;;;;;;8.20;7.40;;;;;;;;;;5095951;28;20231;-69
2022/12/21 06:24:38;;;;;;;8.10;7.40;;;;;;;;;;5095988;28;20203;-68
2022/12/21 06:27:06;;;;;;;7.80;7.00;;;;;;;;;;5095446;28;20204;-68
2022/12/21 06:29:33;;;;;;;8.65;7.40;;;;;;;;;;5096024;28;20485;-68
2022/12/21 06:32:01;;;;;;;7.97;7.18;;;;;;;;;;5096228;28;20251;-68
2022/12/21 06:34:29;;;;;;;9.32;7.72;;;;;;;;;;5094673;28;20286;-68
2022/12/21 06:36:57;;;;;;;11.20;7.47;;;;;;;;;;5095641;28;20298;-69
2022/12/21 06:39:24;;;;;;;12.00;8.85;;;;;;;;;;5096246;28;20234;-69
2022/12/21 06:41:52;;;;;;;12.68;8.82;;;;;;;;;;5095968;28;20231;-69
2022/12/21 06:44:19;;;;;;;11.32;8.82;;;;;;;;;;5095560;28;20204;-69
2022/12/21 06:46:47;;;;;;;12.07;8.75;;;;;;;;;;5095049;28;20211;-69
2022/12/21 06:49:14;;;;;;;13.57;9.82;;;;;;;;;;5094985;28;20306;-69
2022/12/21 06:51:43;;;;;;;17.02;10.18;;;;;;;;;;5095084;28;20227;-69
2022/12/21 06:54:11;;;;;;;15.20;10.20;;;;;;;;;;5095495;28;20210;-69
2022/12/21 06:56:39;;;;;;;16.02;10.63;;;;;;;;;;5095786;28;20204;-69
2022/12/21 06:59:06;;;;;;;13.63;10.55;;;;;;;;;;5095027;28;20208;-69
2022/12/21 07:01:35;;;;;;;16.02;10.70;;;;;;;;;;5096298;28;20294;-69
2022/12/21 07:04:02;;;;;;;19.35;11.23;;;;;;;;;;5094691;28;20310;-69
2022/12/21 07:06:30;;;;;;;19.02;11.20;;;;;;;;;;5095594;28;20310;-68
2022/12/21 07:09:00;;;;;;;18.38;10.55;;;;;;;;;;5095370;28;20295;-68
2022/12/21 07:11:28;;;;;;;15.38;11.20;;;;;;;;;;5095096;28;20318;-68
2022/12/21 07:13:56;;;;;;;16.58;11.18;;;;;;;;;;5095262;28;20294;-68
2022/12/21 07:16:24;;;;;;;15.60;11.07;;;;;;;;;;5095427;28;20440;-69
2022/12/21 07:18:53;;;;;;;19.55;11.40;;;;;;;;;;5074040;28;20707;-69
2022/12/21 07:21:21;;;;;;;17.23;11.05;;;;;;;;;;5074660;28;20690;-68
2022/12/21 07:23:48;;;;;;;18.60;11.10;;;;;;;;;;5074598;28;20303;-68
2022/12/21 07:26:18;;;;;;;19.55;11.52;;;;;;;;;;5073879;28;20294;-68
2022/12/21 07:28:47;;;;;;;16.80;10.98;;;;;;;;;;5074321;28;20295;-69
2022/12/21 07:31:16;;;;;;;16.88;10.93;;;;;;;;;;5078364;28;20234;-68
2022/12/21 07:33:44;;;;;;;18.23;10.63;;;;;;;;;;5078429;28;20261;-68
2022/12/21 07:36:12;;;;;;;16.63;10.82;;;;;;;;;;5078003;28;20205;-68
2022/12/21 07:38:40;;;;;;;16.48;10.75;;;;;;;;;;5077605;28;20296;-68
2022/12/21 07:41:09;;;;;;;14.60;11.55;;;;;;;;;;5078420;28;20210;-69
2022/12/21 07:43:38;;;;;;;18.88;10.68;;;;;;;;;;5077544;28;20211;-68
2022/12/21 07:46:06;;;;;;;17.17;11.05;;;;;;;;;;5077837;28;20294;-68
2022/12/21 07:48:34;;;;;;;16.88;11.45;;;;;;;;;;5077398;28;20205;-68
2022/12/21 07:51:02;;;;;;;15.85;10.68;;;;;;;;;;5077186;28;20193;-68
2022/12/21 07:53:29;;;;;;;17.73;11.23;;;;;;;;;;5077054;28;20270;-68
2022/12/21 07:56:00;;;;;;;14.80;10.65;;;;;;;;;;5077108;28;20211;-68
2022/12/21 07:58:27;;;;;;;15.57;10.75;;;;;;;;;;5078028;28;20889;-68
2022/12/21 08:00:56;;;;;;;15.05;10.10;;;;;;;;;;5077885;28;20208;-69
2022/12/21 08:03:24;;;;;;;17.23;10.27;;;;;;;;;;5077808;28;20239;-69
2022/12/21 08:05:55;;;;;;;15.30;10.55;;;;;;;;;;5077796;28;20660;-68
2022/12/21 08:08:22;;;;;;;15.38;10.45;;;;;;;;;;5077525;28;20202;-68
2022/12/21 08:10:50;;;;;;;14.50;10.35;;;;;;;;;;5077510;28;20847;-68
2022/12/21 08:13:17;;;;;;;15.65;9.85;;;;;;;;;;5077549;28;20319;-68
2022/12/21 08:15:45;;;;;;;15.32;10.10;;;;;;;;;;5077462;28;20207;-68
2022/12/21 08:18:14;;;;;;;13.90;10.32;;;;;;;;;;5077778;28;20208;-69
2022/12/21 08:20:44;;;;;;;14.25;10.30;;;;;;;;;;5078257;28;20295;-69
2022/12/21 08:23:12;;;;;;;13.75;10.07;;;;;;;;;;5077750;28;20227;-68
2022/12/21 08:25:39;;;;;;;14.18;10.05;;;;;;;;;;5078514;28;20302;-69
2022/12/21 08:28:06;;;;;;;14.68;10.00;;;;;;;;;;5078078;28;20200;-69
2022/12/21 08:30:34;;;;;;;14.25;10.50;;;;;;;;;;5078037;28;20508;-69
2022/12/21 08:33:02;;;;;;;14.88;9.98;;;;;;;;;;5078976;28;20223;-69
2022/12/21 08:35:31;;;;;;;14.70;10.00;;;;;;;;;;5097596;28;20622;-69
2022/12/21 08:37:59;;;;;;;13.38;9.65;;;;;;;;;;5097671;28;20309;-68
2022/12/21 08:40:26;;;;;;;13.82;10.00;;;;;;;;;;5097258;28;20324;-68
2022/12/21 08:42:55;;;;;;;14.77;10.07;;;;;;;;;;5096666;28;20210;-69
2022/12/21 08:45:22;;;;;;;11.70;9.25;;;;;;;;;;5097466;28;20291;-69
2022/12/21 08:47:50;;;;;;;12.95;9.57;;;;;;;;;;5097343;28;20302;-69
2022/12/21 08:50:17;;;;;;;11.45;9.35;;;;;;;;;;5097313;28;20298;-69
2022/12/21 08:52:48;;;;;;;11.65;9.40;;;;;;;;;;5096304;28;20322;-69
2022/12/21 08:55:15;;;;;;;12.02;9.15;;;;;;;;;;5097077;28;20200;-69
2022/12/21 08:57:42;;;;;;;13.93;9.52;;;;;;;;;;5096216;28;20226;-68
2022/12/21 09:00:11;;;;;;;13.52;9.30;;;;;;;;;;5095801;28;20213;-68
2022/12/21 09:02:39;;;;;;;12.25;9.48;;;;;;;;;;5096126;28;20200;-68
2022/12/21 09:05:06;;;;;;;12.68;9.25;;;;;;;;;;5095862;28;20714;-68
2022/12/21 09:07:34;;;;;;;12.63;9.20;;;;;;;;;;5095538;28;20211;-69
2022/12/21 09:10:03;;;;;;;12.68;9.35;;;;;;;;;;5095506;28;20302;-69
2022/12/21 09:12:30;;;;;;;11.65;8.52;;;;;;;;;;5096417;28;20228;-69
2022/12/21 09:14:58;;;;;;;11.27;9.00;;;;;;;;;;5096123;28;20203;-69
2022/12/21 09:17:26;;;;;;;11.55;8.80;;;;;;;;;;5095899;28;20204;-69
2022/12/21 09:19:54;;;;;;;10.73;8.95;;;;;;;;;;5096320;28;20196;-68
2022/12/21 09:22:23;;;;;;;11.07;8.73;;;;;;;;;;5095655;28;20298;-68
2022/12/21 09:24:51;;;;;;;10.02;8.85;;;;;;;;;;5096261;28;20204;-68
2022/12/21 09:27:19;;;;;;;10.35;8.52;;;;;;;;;;5095328;28;20204;-69
2022/12/21 09:29:47;;;;;;;9.55;8.32;;;;;;;;;;5095178;28;20303;-69
2022/12/21 09:32:14;;;;;;;10.35;8.50;;;;;;;;;;5095612;28;20223;-69
2022/12/21 09:34:42;;;;;;;10.45;8.30;;;;;;;;;;5095169;28;20215;-69
2022/12/21 09:37:09;;;;;;;9.32;8.15;;;;;;;;;;5095728;28;20217;-69
2022/12/21 09:39:38;;;;;;;9.52;8.32;;;;;;;;;;5095259;28;20697;-68
2022/12/21 09:42:10;;;;;;;9.10;8.18;;;;;;;;;;5095302;28;20651;-68
2022/12/21 09:44:52;;;;;;;9.45;8.27;;;;;;;;;;5095274;28;20203;-68
2022/12/21 09:47:22;;;;;;;9.35;8.27;;;;;;;;;;5092717;28;20223;-68
2022/12/21 09:49:52;;;;;;;9.02;7.68;;;;;;;;;;5095185;28;20456;-68
2022/12/21 09:52:22;;;;;;;9.68;7.78;;;;;;;;;;5094905;28;20234;-68
2022/12/21 09:54:55;;;;;;;9.82;7.93;;;;;;;;;;5094717;28;20214;-69
2022/12/21 09:57:23;;;;;;;8.95;7.40;;;;;;;;;;5095089;28;20606;-68
2022/12/21 09:59:50;;;;;;;8.85;7.95;;;;;;;;;;5094449;28;20264;-68
2022/12/21 10:02:25;;;;;;;8.45;7.55;;;;;;;;;;5093951;28;20256;-68
2022/12/21 10:05:01;;;;;;;9.27;7.82;;;;;;;;;;5094820;28;20201;-68
2022/12/21 10:07:44;;;;;;;8.88;7.50;;;;;;;;;;5094757;28;20282;-68
2022/12/21 10:10:18;;;;;;;8.50;7.60;;;;;;;;;;5078900;28;20208;-68
2022/12/21 10:12:49;;;;;;;8.25;7.35;;;;;;;;;;5094355;28;20234;-68
2022/12/21 10:15:26;;;;;;;8.90;7.05;;;;;;;;;;5094050;28;20229;-68
2022/12/21 10:18:00;;;;;;;8.13;7.10;;;;;;;;;;5093761;28;20206;-69
2022/12/21 10:20:35;;;;;;;8.48;7.43;;;;;;;;;;5094122;28;20293;-68
2022/12/21 10:23:05;;;;;;;8.43;7.35;;;;;;;;;;5094634;28;20206;-69
2022/12/21 10:25:39;;;;;;;8.10;7.25;;;;;;;;;;5094090;28;20203;-69
2022/12/21 10:28:12;;;;;;;9.15;7.40;;;;;;;;;;5092769;28;20243;-69
2022/12/21 10:30:40;;;;;;;8.70;7.72;;;;;;;;;;5092533;28;20307;-69
2022/12/21 10:33:13;;;;;;;7.88;7.07;;;;;;;;;;5072713;28;20669;-68
2022/12/21 10:35:40;;;;;;;7.85;7.05;;;;;;;;;;5073503;28;20204;-68
2022/12/21 10:38:13;;;;;;;9.80;7.38;;;;;;;;;;5072759;28;20204;-68
2022/12/21 10:40:41;;;;;;;7.65;6.78;;;;;;;;;;5073311;28;20207;-69
2022/12/21 10:43:11;;;;;;;7.47;6.78;;;;;;;;;;5073067;28;20240;-68
2022/12/21 10:45:38;;;;;;;7.28;6.57;;;;;;;;;;5073073;28;20197;-68
2022/12/21 10:48:06;;;;;;;8.13;6.68;;;;;;;;;;5072257;28;20204;-68
2022/12/21 10:50:36;;;;;;;7.97;7.18;;;;;;;;;;5072603;28;20218;-68
2022/12/21 10:53:19;;;;;;;7.35;6.65;;;;;;;;;;5071664;28;20314;-68
2022/12/21 10:55:47;;;;;;;8.27;6.65;;;;;;;;;;5080727;28;20274;-68
2022/12/21 10:58:17;;;;;;;7.50;6.47;;;;;;;;;;5083778;28;20203;-68
2022/12/21 11:00:51;;;;;;;7.40;6.68;;;;;;;;;;5093778;28;20680;-68
2022/12/21 11:03:26;;;;;;;7.85;7.00;;;;;;;;;;5075609;28;20331;-68
2022/12/21 11:05:55;;;;;;;7.72;6.90;;;;;;;;;;5075436;28;20595;-68
2022/12/21 11:08:27;;;;;;;6.78;6.07;;;;;;;;;;5077161;28;20314;-68
2022/12/21 11:10:55;;;;;;;8.77;6.18;;;;;;;;;;5085205;28;20202;-68
2022/12/21 11:13:24;;;;;;;7.50;6.70;;;;;;;;;;5096327;28;20722;-69
2022/12/21 11:15:53;;;;;;;6.75;6.15;;;;;;;;;;5096474;28;20282;-69
2022/12/21 11:18:27;;;;;;;6.75;6.05;;;;;;;;;;5097080;28;20291;-69
2022/12/21 11:20:55;;;;;;;6.78;6.07;;;;;;;;;;5096943;28;20253;-69
2022/12/21 11:23:23;;;;;;;6.88;6.15;;;;;;;;;;5096155;28;20260;-68
2022/12/21 11:25:51;;;;;;;6.25;5.55;;;;;;;;;;5096549;28;20245;-69
2022/12/21 11:28:19;;;;;;;6.70;5.80;;;;;;;;;;5083633;28;20584;-68
2022/12/21 11:30:51;;;;;;;7.20;6.50;;;;;;;;;;5075726;28;20501;-68
2022/12/21 11:33:19;;;;;;;6.90;6.20;;;;;;;;;;5076703;28;20220;-68
2022/12/21 11:36:02;;;;;;;6.68;5.97;;;;;;;;;;5076304;28;20201;-68
2022/12/21 11:38:35;;;;;;;6.13;5.53;;;;;;;;;;5076265;28;20250;-69
2022/12/21 11:41:02;;;;;;;6.50;5.90;;;;;;;;;;5076229;28;20236;-69
2022/12/21 11:43:30;;;;;;;6.72;6.05;;;;;;;;;;5074931;28;20192;-69
2022/12/21 11:46:03;;;;;;;5.88;5.28;;;;;;;;;;5084049;28;20301;-68
2022/12/21 11:48:35;;;;;;;6.25;5.65;;;;;;;;;;5095481;28;20210;-69
2022/12/21 11:51:07;;;;;;;7.45;6.00;;;;;;;;;;5095524;28;20332;-69
2022/12/21 11:53:48;;;;;;;6.82;5.97;;;;;;;;;;5095941;28;20507;-69
2022/12/21 11:56:21;;;;;;;6.45;5.53;;;;;;;;;;5095029;28;20269;-69
2022/12/21 11:58:57;;;;;;;9.10;6.13;;;;;;;;;;5095670;28;20306;-69
2022/12/21 12:01:29;;;;;;;10.18;6.13;;;;;;;;;;5095594;28;20290;-68
2022/12/21 12:04:01;;;;;;;10.02;5.80;;;;;;;;;;5096170;28;20535;-68
2022/12/21 12:06:45;;;;;;;11.93;5.90;;;;;;;;;;5096096;28;20298;-69
2022/12/21 12:09:21;;;;;;;12.45;6.13;;;;;;;;;;5095904;28;20239;-68
2022/12/21 12:11:54;;;;;;;10.73;5.78;;;;;;;;;;5095921;28;20206;-69
2022/12/21 12:14:32;;;;;;;13.10;6.22;;;;;;;;;;5095607;28;20227;-68
2022/12/21 12:17:05;;;;;;;12.20;5.60;;;;;;;;;;5094742;28;20210;-68
2022/12/21 12:19:36;;;;;;;8.05;5.38;;;;;;;;;;5095621;28;20196;-68
2022/12/21 12:22:11;;;;;;;9.07;5.25;;;;;;;;;;5095579;28;20713;-68
2022/12/21 12:25:00;;;;;;;10.57;5.35;;;;;;;;;;5095846;28;20199;-68
2022/12/21 12:27:38;;;;;;;8.82;5.03;;;;;;;;;;5096860;28;20286;-68
2022/12/21 12:30:10;;;;;;;12.18;5.32;;;;;;;;;;5095864;28;20207;-69
2022/12/21 12:32:48;;;;;;;13.13;5.28;;;;;;;;;;5095761;28;20203;-69
2022/12/21 12:35:26;;;;;;;8.55;5.38;;;;;;;;;;5095796;28;20195;-68
2022/12/21 12:38:01;;;;;;;8.35;5.90;;;;;;;;;;5095816;28;20298;-68
2022/12/21 12:40:35;;;;;;;6.65;5.00;;;;;;;;;;5096403;28;20552;-69
2022/12/21 12:43:04;;;;;;;7.13;4.90;;;;;;;;;;5095675;28;20222;-68
2022/12/21 12:45:37;;;;;;;7.15;4.72;;;;;;;;;;5096040;28;20792;-68
2022/12/21 12:48:10;;;;;;;8.00;5.38;;;;;;;;;;5096094;28;20795;-68
2022/12/21 12:50:42;;;;;;;7.63;5.50;;;;;;;;;;5095998;28;20298;-68
2022/12/21 12:53:16;;;;;;;6.57;4.75;;;;;;;;;;5095019;28;20223;-68
2022/12/21 12:55:49;;;;;;;7.20;4.95;;;;;;;;;;5095532;28;20662;-68
2022/12/21 12:58:20;;;;;;;6.57;4.90;;;;;;;;;;5095869;28;20203;-68
2022/12/21 13:00:53;;;;;;;7.00;4.88;;;;;;;;;;5095798;28;20232;-67
2022/12/21 13:03:27;;;;;;;6.18;4.80;;;;;;;;;;5095671;28;20223;-68
2022/12/21 13:05:59;;;;;;;7.22;5.20;;;;;;;;;;5095216;28;20465;-68
2022/12/21 13:08:32;;;;;;;6.25;4.97;;;;;;;;;;5096231;28;20290;-68
2022/12/21 13:11:05;;;;;;;5.63;4.63;;;;;;;;;;5094989;28;20265;-67
2022/12/21 13:13:37;;;;;;;6.55;4.90;;;;;;;;;;5074367;28;20224;-68
2022/12/21 13:16:10;;;;;;;7.43;5.03;;;;;;;;;;5075184;28;20215;-68
2022/12/21 13:18:40;;;;;;;8.77;5.45;;;;;;;;;;5075752;28;20204;-67
2022/12/21 13:21:08;;;;;;;6.78;4.97;;;;;;;;;;5074558;28;20295;-67
2022/12/21 13:23:38;;;;;;;6.05;5.45;;;;;;;;;;5074755;28;20201;-68
2022/12/21 13:26:11;;;;;;;8.68;5.00;;;;;;;;;;5074050;28;20219;-67
2022/12/21 13:28:42;;;;;;;5.70;4.97;;;;;;;;;;5074475;28;20235;-67
2022/12/21 13:31:12;;;;;;;5.47;4.57;;;;;;;;;;5074220;28;20204;-67
2022/12/21 13:33:47;;;;;;;5.95;4.60;;;;;;;;;;5074436;28;20520;-68
2022/12/21 13:36:15;;;;;;;7.38;4.80;;;;;;;;;;5075139;28;20215;-67
2022/12/21 13:38:44;;;;;;;5.82;4.07;;;;;;;;;;5075005;28;20592;-67
2022/12/21 13:41:16;;;;;;;4.80;4.30;;;;;;;;;;5075093;28;20205;-67
2022/12/21 13:43:44;;;;;;;5.75;4.53;;;;;;;;;;5074172;28;20239;-67
2022/12/21 13:46:12;;;;;;;6.43;4.25;;;;;;;;;;5073646;28;20581;-67
2022/12/21 13:48:42;;;;;;;5.22;4.25;;;;;;;;;;5074035;28;20291;-67
2022/12/21 13:51:24;;;;;;;5.70;4.25;;;;;;;;;;5074023;28;20591;-68
2022/12/21 13:53:56;;;;;;;6.00;4.35;;;;;;;;;;5073581;28;20627;-68
2022/12/21 13:56:28;;;;;;;4.72;4.32;;;;;;;;;;5072904;28;20206;-68
2022/12/21 13:58:57;;;;;;;4.60;3.97;;;;;;;;;;5074175;28;20209;-67
2022/12/21 14:01:33;;;;;;;4.75;3.90;;;;;;;;;;5074062;28;20208;-68
2022/12/21 14:04:04;;;;;;;4.57;3.97;;;;;;;;;;5074026;28;20511;-67
2022/12/21 14:06:50;;;;;;;6.28;4.10;;;;;;;;;;5073168;28;20254;-67
2022/12/21 14:09:23;;;;;;;4.28;3.88;;;;;;;;;;5074460;28;20204;-67
2022/12/21 14:12:17;;;;;;;4.15;3.75;;;;;;;;;;5073648;28;20204;-67
2022/12/21 14:14:51;;;;;;;5.07;4.30;;;;;;;;;;5073883;28;20228;-67
2022/12/21 14:17:19;;;;;;;4.20;3.83;;;;;;;;;;5073403;28;20208;-67
2022/12/21 14:19:52;;;;;;;4.38;3.92;;;;;;;;;;5073100;28;20825;-67
2022/12/21 14:22:31;;;;;;;4.57;4.03;;;;;;;;;;5074060;28;20196;-67
2022/12/21 14:25:00;;;;;;;4.78;3.85;;;;;;;;;;5073909;28;20299;-67
2022/12/21 14:27:28;;;;;;;4.10;3.80;;;;;;;;;;5073600;28;20592;-67
2022/12/21 14:30:05;;;;;;;4.55;3.88;;;;;;;;;;5072939;28;20214;-67
2022/12/21 14:32:32;;;;;;;4.13;3.72;;;;;;;;;;5073481;28;20398;-67
2022/12/21 14:35:01;;;;;;;4.00;3.70;;;;;;;;;;5074121;28;20567;-68
2022/12/21 14:37:29;;;;;;;4.18;3.50;;;;;;;;;;5073454;28;20204;-67
2022/12/21 14:40:20;;;;;;;4.15;3.85;;;;;;;;;;5073465;28;20237;-67
2022/12/21 14:42:55;;;;;;;3.90;3.60;;;;;;;;;;5074417;28;20204;-68
2022/12/21 14:45:24;;;;;;;4.40;3.70;;;;;;;;;;5074252;28;20786;-68
2022/12/21 14:47:59;;;;;;;3.90;3.50;;;;;;;;;;5073227;28;20214;-68
2022/12/21 14:50:47;;;;;;;3.88;3.50;;;;;;;;;;5073920;28;20236;-67
2022/12/21 14:53:31;;;;;;;4.10;3.53;;;;;;;;;;5055861;28;20204;-67
2022/12/21 14:56:02;;;;;;;3.67;3.20;;;;;;;;;;5073501;28;20208;-67
2022/12/21 14:58:34;;;;;;;3.63;3.30;;;;;;;;;;5073236;28;20291;-67
2022/12/21 15:01:18;;;;;;;4.47;3.40;;;;;;;;;;5072799;28;20295;-68
2022/12/21 15:03:47;;;;;;;3.60;3.30;;;;;;;;;;5072689;28;20228;-68
2022/12/21 15:06:22;;;;;;;3.72;3.42;;;;;;;;;;5073920;28;20231;-68